Mardan Weather



Mardan's Current Weather

Temprature 14o haze

haze

Rain: 0 %

Min Temprature14o
Max Temprature14o
Humidity28
Wind Speed2.06 m/h
Sun Rise07:14:35
Sun Set17:32:18
Current Time: 23-Jan-2021 19:24:33
Lat/Lon: 34.2019, 72.0525




Mardan's Geo Location



Mardan's Weather Forecast

Time Overall Temp Min Temp Max Temp Humidity Wind Speed Rain
23-Jan-2021 (Sat)
20:00:00 clear sky 12.720 11.370 12.720 31 3.58 m/h 0 %
23:00:00 clear sky 10.380 9.380 10.380 41 2.44 m/h 0 %
24-Jan-2021 (Sun)
02:00:00 clear sky 7.310 6.850 7.310 49 2.85 m/h 0 %
05:00:00 clear sky 5.410 5.340 5.410 51 2.39 m/h 0 %
08:00:00 clear sky 5.380 5.380 5.380 51 1.91 m/h 0 %
11:00:00 clear sky 13.200 13.200 13.200 30 2.55 m/h 0 %
14:00:00 clear sky 17.200 17.200 17.200 23 3.1 m/h 0 %
17:00:00 clear sky 14.740 14.740 14.740 29 2.92 m/h 0 %
20:00:00 clear sky 9.930 9.930 9.930 38 1.42 m/h 0 %
23:00:00 clear sky 8.840 8.840 8.840 43 1.19 m/h 0 %
25-Jan-2021 (Mon)
02:00:00 clear sky 7.660 7.660 7.660 47 1.56 m/h 0 %
05:00:00 few clouds 6.460 6.460 6.460 49 1.39 m/h 0 %
08:00:00 clear sky 6.830 6.830 6.830 48 1.26 m/h 0 %
11:00:00 clear sky 14.610 14.610 14.610 29 1.71 m/h 0 %
14:00:00 clear sky 18.560 18.560 18.560 22 2.33 m/h 0 %
17:00:00 clear sky 16.040 16.040 16.040 28 1.46 m/h 0 %
20:00:00 clear sky 11.210 11.210 11.210 37 0.96 m/h 0 %
23:00:00 clear sky 9.210 9.210 9.210 44 1.99 m/h 0 %
26-Jan-2021 (Tue)
02:00:00 clear sky 7.830 7.830 7.830 47 1.44 m/h 0 %
05:00:00 clear sky 6.610 6.610 6.610 50 0.98 m/h 0 %
08:00:00 clear sky 7.100 7.100 7.100 49 0.91 m/h 0 %
11:00:00 clear sky 14.590 14.590 14.590 30 1.21 m/h 0 %
14:00:00 clear sky 18.510 18.510 18.510 23 1.93 m/h 0 %
17:00:00 clear sky 16.230 16.230 16.230 29 1.21 m/h 0 %
20:00:00 clear sky 11.480 11.480 11.480 37 1.18 m/h 0 %
23:00:00 clear sky 9.420 9.420 9.420 44 1.61 m/h 0 %
27-Jan-2021 (Wed)
02:00:00 clear sky 7.860 7.860 7.860 47 1.27 m/h 0 %
05:00:00 clear sky 6.620 6.620 6.620 50 1.13 m/h 0 %
08:00:00 clear sky 7.110 7.110 7.110 49 1.03 m/h 0 %
11:00:00 few clouds 14.780 14.780 14.780 29 1.89 m/h 0 %
14:00:00 scattered clouds 18.940 18.940 18.940 22 2.34 m/h 0 %
17:00:00 scattered clouds 16.480 16.480 16.480 28 1.84 m/h 0 %
20:00:00 clear sky 11.040 11.040 11.040 38 0.74 m/h 0 %
23:00:00 clear sky 8.890 8.890 8.890 44 1.92 m/h 0 %
28-Jan-2021 (Thu)
02:00:00 clear sky 7.140 7.140 7.140 48 1.14 m/h 0 %
05:00:00 clear sky 5.860 5.860 5.860 51 0.93 m/h 0 %
08:00:00 clear sky 6.520 6.520 6.520 49 0.99 m/h 0 %
11:00:00 clear sky 14.420 14.420 14.420 29 1.57 m/h 0 %
14:00:00 clear sky 18.460 18.460 18.460 22 2.19 m/h 0 %
17:00:00 clear sky 16.090 16.090 16.090 28 1.55 m/h 0 %

Famous Cities (60)